createdAt,value
2019-02-02T00:00:02.906Z,0.1
2019-02-02T00:01:02.777Z,0.1
2019-02-02T00:02:03.178Z,0.1
2019-02-02T00:03:02.963Z,0.1
2019-02-02T00:04:02.836Z,0.1
2019-02-02T00:05:03.799Z,0.1
2019-02-02T00:06:03.016Z,0.1
2019-02-02T00:07:02.829Z,0.1
2019-02-02T00:08:03.635Z,0.1
2019-02-02T00:09:03.104Z,0.1
2019-02-02T00:10:03.631Z,0.1
2019-02-02T00:11:03.657Z,0.1
2019-02-02T00:12:03.498Z,0.1
2019-02-02T00:13:03.064Z,0.1
2019-02-02T00:14:03.408Z,0.1
2019-02-02T00:15:03.643Z,0.2
2019-02-02T00:16:02.981Z,0.2
2019-02-02T00:17:03.692Z,0.1
2019-02-02T00:18:02.778Z,0.1
2019-02-02T00:19:03.802Z,0.1
2019-02-02T00:20:02.713Z,0.1
2019-02-02T00:21:02.981Z,0.1
2019-02-02T00:22:03.310Z,0.1
2019-02-02T00:23:03.715Z,0.1
2019-02-02T00:24:02.848Z,0.1
2019-02-02T00:25:03.817Z,0.1
2019-02-02T00:26:03.238Z,0.1
2019-02-02T00:27:03.769Z,0.1
2019-02-02T00:28:03.511Z,0.1
2019-02-02T00:29:02.847Z,0.1
2019-02-02T00:30:03.605Z,0.1
2019-02-02T00:31:02.754Z,0.1
2019-02-02T00:32:03.280Z,0.1
2019-02-02T00:33:02.833Z,0.1
2019-02-02T00:34:02.830Z,0.1
2019-02-02T00:35:02.980Z,0.1
2019-02-02T00:36:03.162Z,0.1
2019-02-02T00:37:02.957Z,0.1
2019-02-02T00:38:03.499Z,0.1
2019-02-02T00:39:03.408Z,0.1
2019-02-02T00:40:03.787Z,0.1
2019-02-02T00:41:02.937Z,0.1
2019-02-02T00:42:03.270Z,0.1
2019-02-02T00:43:03.590Z,0.1
2019-02-02T00:44:03.419Z,0.1
2019-02-02T00:45:02.896Z,0.1
2019-02-02T00:46:03.586Z,0.1
2019-02-02T00:47:03.082Z,0.1
2019-02-02T00:48:03.075Z,0.1
2019-02-02T00:49:02.850Z,0.1
2019-02-02T00:50:03.639Z,0.1
2019-02-02T00:51:03.119Z,0.1
2019-02-02T00:52:03.189Z,0.2
2019-02-02T00:53:03.358Z,0.2
2019-02-02T00:54:03.632Z,0.3
2019-02-02T00:55:03.777Z,0.2
2019-02-02T00:56:02.925Z,0.3
2019-02-02T00:57:03.212Z,0.3
2019-02-02T00:58:03.163Z,0.3
2019-02-02T00:59:03.994Z,0.3
2019-02-02T01:00:03.367Z,0.2
2019-02-02T01:01:03.240Z,0.3
2019-02-02T01:02:03.403Z,0.3
2019-02-02T01:03:03.432Z,0.3
2019-02-02T01:04:03.172Z,0.3
2019-02-02T01:05:02.875Z,0.3
2019-02-02T01:06:05.429Z,0.3
2019-02-02T01:07:03.520Z,0.3
2019-02-02T01:08:03.809Z,0.2
2019-02-02T01:09:02.923Z,0.2
2019-02-02T01:10:03.770Z,0.2
2019-02-02T01:11:03.605Z,0.2
2019-02-02T01:12:03.055Z,0.2
2019-02-02T01:13:03.500Z,0.2
2019-02-02T01:14:03.252Z,0.2
2019-02-02T01:15:02.988Z,0.3
2019-02-02T01:16:02.877Z,0.3
2019-02-02T01:17:02.971Z,0.2
2019-02-02T01:18:03.082Z,0.2
2019-02-02T01:19:03.635Z,0.2
2019-02-02T01:20:03.146Z,0.2
2019-02-02T01:21:03.837Z,0.1
2019-02-02T01:22:03.355Z,0.1
2019-02-02T01:23:03.235Z,0.1
2019-02-02T01:24:02.668Z,0.1
2019-02-02T01:25:02.954Z,0.1
2019-02-02T01:26:02.897Z,0.1
2019-02-02T01:27:03.047Z,0.1
2019-02-02T01:28:05.887Z,0
2019-02-02T01:29:03.283Z,0
2019-02-02T01:30:03.402Z,0
2019-02-02T01:31:03.332Z,-0.1
2019-02-02T01:32:02.912Z,-0.1
2019-02-02T01:33:03.649Z,-0.1
2019-02-02T01:34:03.690Z,-0.1
2019-02-02T01:35:03.281Z,-0.1
2019-02-02T01:36:02.908Z,-0.1
2019-02-02T01:37:03.203Z,-0.1
2019-02-02T01:38:03.268Z,-0.1
2019-02-02T01:39:02.913Z,-0.1
2019-02-02T01:40:03.679Z,0
2019-02-02T01:41:03.155Z,0
2019-02-02T01:42:03.107Z,0.1
2019-02-02T01:43:04.033Z,0.1
2019-02-02T01:44:02.888Z,0.1
2019-02-02T01:45:03.017Z,0.1
2019-02-02T01:46:02.947Z,0.1
2019-02-02T01:47:02.918Z,0.1
2019-02-02T01:48:03.886Z,0.1
2019-02-02T01:49:03.470Z,0
2019-02-02T01:50:03.429Z,0
2019-02-02T01:51:03.141Z,0
2019-02-02T01:52:03.003Z,0
2019-02-02T01:53:03.783Z,0
2019-02-02T01:54:03.447Z,0
2019-02-02T01:55:03.555Z,-0.1
2019-02-02T01:56:03.239Z,-0.1
2019-02-02T01:57:03.102Z,-0.1
2019-02-02T01:58:02.769Z,-0.1
2019-02-02T01:59:03.383Z,-0.1
2019-02-02T02:00:02.924Z,-0.1
2019-02-02T02:01:03.131Z,-0.1
2019-02-02T02:02:03.462Z,-0.1
2019-02-02T02:03:03.164Z,-0.1
2019-02-02T02:04:03.780Z,-0.2
2019-02-02T02:05:03.194Z,-0.2
2019-02-02T02:06:02.888Z,-0.2
2019-02-02T02:07:02.896Z,-0.2
2019-02-02T02:08:02.760Z,-0.2
2019-02-02T02:09:03.249Z,-0.2
2019-02-02T02:10:03.552Z,-0.3
2019-02-02T02:11:03.384Z,-0.2
2019-02-02T02:12:02.880Z,-0.1
2019-02-02T02:13:02.856Z,-0.2
2019-02-02T02:14:04.091Z,-0.2
2019-02-02T02:15:03.727Z,-0.2
2019-02-02T02:16:02.995Z,-0.1
2019-02-02T02:17:03.074Z,-0.1
2019-02-02T02:18:03.126Z,-0.1
2019-02-02T02:19:03.097Z,-0.1
2019-02-02T02:20:03.125Z,-0.1
2019-02-02T02:21:03.357Z,-0.1
2019-02-02T02:22:02.845Z,-0.1
2019-02-02T02:23:03.132Z,-0.1
2019-02-02T02:24:03.686Z,-0.1
2019-02-02T02:25:03.366Z,-0.1
2019-02-02T02:26:02.923Z,-0.1
2019-02-02T02:27:03.212Z,-0.2
2019-02-02T02:28:03.136Z,-0.2
2019-02-02T02:29:02.985Z,-0.2
2019-02-02T02:30:02.916Z,-0.2
2019-02-02T02:31:02.859Z,-0.2
2019-02-02T02:32:02.740Z,-0.2
2019-02-02T02:33:03.021Z,-0.1
2019-02-02T02:34:03.139Z,-0.1
2019-02-02T02:35:03.191Z,-0.1
2019-02-02T02:36:03.210Z,-0.1
2019-02-02T02:37:02.949Z,-0.1
2019-02-02T02:38:02.949Z,-0.1
2019-02-02T02:39:02.985Z,-0.2
2019-02-02T02:40:03.510Z,-0.2
2019-02-02T02:41:02.974Z,-0.1
2019-02-02T02:42:03.095Z,-0.3
2019-02-02T02:43:03.638Z,-0.3
2019-02-02T02:44:03.025Z,-0.3
2019-02-02T02:45:03.537Z,-0.2
2019-02-02T02:46:03.170Z,-0.2
2019-02-02T02:47:02.885Z,-0.3
2019-02-02T02:48:02.970Z,-0.2
2019-02-02T02:49:03.611Z,-0.1
2019-02-02T02:50:03.680Z,-0.1
2019-02-02T02:51:03.532Z,-0.1
2019-02-02T02:52:03.883Z,-0.1
2019-02-02T02:53:03.054Z,-0.2
2019-02-02T02:54:03.387Z,-0.2
2019-02-02T02:55:03.643Z,-0.2
2019-02-02T02:56:03.183Z,-0.1
2019-02-02T02:57:03.532Z,-0.1
2019-02-02T02:58:03.653Z,-0.1
2019-02-02T02:59:03.434Z,-0.1
2019-02-02T03:00:03.481Z,-0.1
2019-02-02T03:01:03.785Z,-0.1
2019-02-02T03:02:03.027Z,-0.1
2019-02-02T03:03:03.561Z,-0.1
2019-02-02T03:04:03.820Z,-0.1
2019-02-02T03:05:03.287Z,-0.1
2019-02-02T03:06:02.890Z,-0.1
2019-02-02T03:07:02.770Z,-0.1
2019-02-02T03:08:03.558Z,-0.1
2019-02-02T03:09:02.955Z,-0.1
2019-02-02T03:10:02.856Z,-0.1
2019-02-02T03:11:02.919Z,-0.1
2019-02-02T03:12:02.992Z,-0.1
2019-02-02T03:13:03.642Z,-0.1
2019-02-02T03:14:02.932Z,-0.1
2019-02-02T03:15:03.496Z,-0.1
2019-02-02T03:16:03.204Z,-0.1
2019-02-02T03:17:03.476Z,-0.1
2019-02-02T03:18:03.176Z,-0.1
2019-02-02T03:19:03.148Z,-0.1
2019-02-02T03:20:03.538Z,-0.1
2019-02-02T03:21:03.176Z,-0.1
2019-02-02T03:22:03.278Z,-0.1
2019-02-02T03:23:02.824Z,-0.1
2019-02-02T03:24:03.160Z,-0.1
2019-02-02T03:25:03.661Z,-0.1
2019-02-02T03:26:03.641Z,-0.1
2019-02-02T03:27:03.119Z,-0.1
2019-02-02T03:28:02.803Z,-0.1
2019-02-02T03:29:03.101Z,-0.1
2019-02-02T03:30:03.796Z,-0.1
2019-02-02T03:31:02.871Z,-0.1
2019-02-02T03:32:03.414Z,-0.1
2019-02-02T03:33:02.865Z,-0.1
2019-02-02T03:34:03.503Z,-0.1
2019-02-02T03:35:03.404Z,-0.1
2019-02-02T03:36:02.698Z,-0.1
2019-02-02T03:37:03.568Z,-0.1
2019-02-02T03:38:03.512Z,-0.1
2019-02-02T03:39:03.432Z,-0.1
2019-02-02T03:40:03.343Z,-0.1
2019-02-02T03:41:03.244Z,-0.1
2019-02-02T03:42:03.729Z,-0.1
2019-02-02T03:43:03.026Z,-0.1
2019-02-02T03:44:03.482Z,-0.1
2019-02-02T03:45:03.280Z,-0.1
2019-02-02T03:46:02.950Z,-0.1
2019-02-02T03:47:03.006Z,-0.1
2019-02-02T03:48:03.611Z,-0.1
2019-02-02T03:49:02.748Z,-0.1
2019-02-02T03:50:03.131Z,-0.1
2019-02-02T03:51:02.695Z,-0.1
2019-02-02T03:52:03.634Z,0
2019-02-02T03:53:02.857Z,0
2019-02-02T03:54:09.415Z,0
2019-02-02T03:55:03.799Z,0.1
2019-02-02T03:56:03.596Z,0
2019-02-02T03:57:03.077Z,0.1
2019-02-02T03:58:03.338Z,0.1
2019-02-02T03:59:07.328Z,0.1
2019-02-02T04:00:03.539Z,0.1
2019-02-02T04:01:03.707Z,0.1
2019-02-02T04:02:03.671Z,0.1
2019-02-02T04:03:02.775Z,0.1
2019-02-02T04:04:02.862Z,0
2019-02-02T04:05:03.381Z,0
2019-02-02T04:06:03.521Z,0
2019-02-02T04:07:03.096Z,0
2019-02-02T04:08:04.075Z,-0.1
2019-02-02T04:09:03.429Z,0
2019-02-02T04:10:03.163Z,-0.1
2019-02-02T04:11:02.555Z,-0.1
2019-02-02T04:12:02.843Z,-0.1
2019-02-02T04:13:03.456Z,-0.1
2019-02-02T04:14:03.658Z,-0.1
2019-02-02T04:15:03.067Z,-0.1
2019-02-02T04:16:03.571Z,0
2019-02-02T04:17:03.262Z,0
2019-02-02T04:18:02.935Z,0
2019-02-02T04:19:03.175Z,-0.1
2019-02-02T04:20:03.586Z,-0.1
2019-02-02T04:21:03.070Z,-0.1
2019-02-02T04:22:02.972Z,0
2019-02-02T04:23:02.898Z,-0.1
2019-02-02T04:24:03.294Z,-0.1
2019-02-02T04:25:02.831Z,0
2019-02-02T04:26:03.051Z,0
2019-02-02T04:27:02.901Z,0
2019-02-02T04:28:02.867Z,0.1
2019-02-02T04:29:03.532Z,0.1
2019-02-02T04:30:03.142Z,0.1
2019-02-02T04:31:03.677Z,0.1
2019-02-02T04:32:03.205Z,0.1
2019-02-02T04:33:03.301Z,0.1
2019-02-02T04:34:03.312Z,0.1
2019-02-02T04:35:03.270Z,0.1
2019-02-02T04:36:03.293Z,0.1
2019-02-02T04:37:02.685Z,0.1
2019-02-02T04:38:03.486Z,0.1
2019-02-02T04:39:02.972Z,0.1
2019-02-02T04:40:03.528Z,0.1
2019-02-02T04:41:03.264Z,0.1
2019-02-02T04:42:03.461Z,0.1
2019-02-02T04:43:02.832Z,0.1
2019-02-02T04:44:03.081Z,0.1
2019-02-02T04:45:03.766Z,0.1
2019-02-02T04:46:02.787Z,0.1
2019-02-02T04:47:03.386Z,0.1
2019-02-02T04:48:03.658Z,0.1
2019-02-02T04:49:02.779Z,0.1
2019-02-02T04:50:03.822Z,0.1
2019-02-02T04:51:03.517Z,0.1
2019-02-02T04:52:03.362Z,0.1
2019-02-02T04:53:03.728Z,0.1
2019-02-02T04:54:03.323Z,0.1
2019-02-02T04:55:03.594Z,0.1
2019-02-02T04:56:03.229Z,0
2019-02-02T04:57:02.629Z,0.1
2019-02-02T04:58:02.942Z,0.1
2019-02-02T04:59:03.424Z,0.1
2019-02-02T05:00:03.602Z,0
2019-02-02T05:01:03.365Z,0
2019-02-02T05:02:03.335Z,0
2019-02-02T05:03:02.940Z,0
2019-02-02T05:04:03.259Z,0
2019-02-02T05:05:03.587Z,0
2019-02-02T05:06:03.629Z,-0.1
2019-02-02T05:07:03.280Z,-0.1
2019-02-02T05:08:03.489Z,-0.1
2019-02-02T05:09:03.215Z,-0.1
2019-02-02T05:10:03.764Z,-0.1
2019-02-02T05:11:02.813Z,0
2019-02-02T05:12:03.697Z,-0.1
2019-02-02T05:13:02.798Z,-0.1
2019-02-02T05:14:03.442Z,0
2019-02-02T05:15:02.849Z,0
2019-02-02T05:16:03.034Z,0
2019-02-02T05:17:02.752Z,0
2019-02-02T05:18:03.527Z,0.1
2019-02-02T05:19:03.618Z,0
2019-02-02T05:20:02.946Z,0
2019-02-02T05:21:03.473Z,0
2019-02-02T05:22:03.017Z,0
2019-02-02T05:23:03.097Z,0
2019-02-02T05:24:03.019Z,0
2019-02-02T05:25:03.503Z,0
2019-02-02T05:26:02.915Z,0
2019-02-02T05:27:03.434Z,0.1
2019-02-02T05:28:03.551Z,0.1
2019-02-02T05:29:03.680Z,0.1
2019-02-02T05:30:03.033Z,0.1
2019-02-02T05:31:03.428Z,0.1
2019-02-02T05:32:03.484Z,0.1
2019-02-02T05:33:03.630Z,0.1
2019-02-02T05:34:03.791Z,0.1
2019-02-02T05:35:03.187Z,0.1
2019-02-02T05:36:03.650Z,0.1
2019-02-02T05:37:03.369Z,0.1
2019-02-02T05:38:02.910Z,0.1
2019-02-02T05:39:03.039Z,0.1
2019-02-02T05:40:03.003Z,0.1
2019-02-02T05:41:03.125Z,0.1
2019-02-02T05:42:03.487Z,0.1
2019-02-02T05:43:03.217Z,0.1
2019-02-02T05:44:03.494Z,0.1
2019-02-02T05:45:03.672Z,0.1
2019-02-02T05:46:03.883Z,0.1
2019-02-02T05:47:03.069Z,0.1
2019-02-02T05:48:02.903Z,0.1
2019-02-02T05:49:03.181Z,0.1
2019-02-02T05:50:03.201Z,0.1
2019-02-02T05:51:03.411Z,0.1
2019-02-02T05:52:03.263Z,0.1
2019-02-02T05:53:03.047Z,0.1
2019-02-02T05:54:03.462Z,0.1
2019-02-02T05:55:03.510Z,0.1
2019-02-02T05:56:03.417Z,0.1
2019-02-02T05:57:02.860Z,0
2019-02-02T05:58:03.249Z,0
2019-02-02T05:59:03.533Z,0
2019-02-02T06:00:03.327Z,0
2019-02-02T06:01:02.768Z,-0.1
2019-02-02T06:02:03.063Z,0
2019-02-02T06:03:03.266Z,0
2019-02-02T06:04:02.926Z,0
2019-02-02T06:05:03.440Z,0
2019-02-02T06:06:02.977Z,0
2019-02-02T06:07:03.063Z,0
2019-02-02T06:08:03.094Z,0
2019-02-02T06:09:03.061Z,0
2019-02-02T06:10:03.446Z,0
2019-02-02T06:11:02.978Z,0
2019-02-02T06:12:03.887Z,0
2019-02-02T06:13:03.627Z,0.1
2019-02-02T06:14:03.371Z,0.1
2019-02-02T06:15:03.271Z,0.1
2019-02-02T06:16:02.999Z,0.1
2019-02-02T06:17:03.018Z,0.1
2019-02-02T06:18:02.900Z,0
2019-02-02T06:19:02.866Z,0.1
2019-02-02T06:20:03.383Z,0
2019-02-02T06:21:03.562Z,0.1
2019-02-02T06:22:02.895Z,0
2019-02-02T06:23:03.731Z,0.1
2019-02-02T06:24:03.373Z,0.1
2019-02-02T06:25:03.125Z,0.1
2019-02-02T06:26:03.413Z,0.1
2019-02-02T06:27:03.679Z,0.1
2019-02-02T06:28:03.490Z,0.1
2019-02-02T06:29:02.770Z,0.1
2019-02-02T06:30:05.064Z,0.1
2019-02-02T06:31:03.337Z,0.1
2019-02-02T06:32:12.430Z,0
2019-02-02T06:33:03.236Z,0.1
2019-02-02T06:34:03.658Z,0.1
2019-02-02T06:35:03.329Z,0.1
2019-02-02T06:36:03.842Z,0.1
2019-02-02T06:37:03.160Z,0.1
2019-02-02T06:38:03.415Z,0.1
2019-02-02T06:39:03.047Z,0.1
2019-02-02T06:40:03.557Z,0.1
2019-02-02T06:41:03.243Z,0.1
2019-02-02T06:42:03.394Z,0.1
2019-02-02T06:43:02.944Z,0.1
2019-02-02T06:44:02.605Z,0.1
2019-02-02T06:45:03.409Z,0.1
2019-02-02T06:46:03.383Z,0.1
2019-02-02T06:47:03.694Z,0.1
2019-02-02T06:48:02.601Z,0.1
2019-02-02T06:49:03.791Z,0.1
2019-02-02T06:50:03.669Z,0.1
2019-02-02T06:51:03.664Z,0.1
2019-02-02T06:52:03.420Z,0.1
2019-02-02T06:53:03.732Z,0.1
2019-02-02T06:54:03.313Z,0.1
2019-02-02T06:55:03.059Z,0.1
2019-02-02T06:56:02.805Z,0.1
2019-02-02T06:57:03.638Z,0.1
2019-02-02T06:58:03.095Z,0.1
2019-02-02T06:59:03.239Z,0.1
2019-02-02T07:00:03.521Z,0.1
2019-02-02T07:01:03.435Z,0.1
2019-02-02T07:02:03.271Z,0.1
2019-02-02T07:03:03.692Z,0.1
2019-02-02T07:04:03.209Z,0.1
2019-02-02T07:05:03.518Z,0.1
2019-02-02T07:06:03.024Z,0.2
2019-02-02T07:07:03.319Z,0.2
2019-02-02T07:08:02.645Z,0.1
2019-02-02T07:09:02.854Z,0.1
2019-02-02T07:10:03.119Z,0.2
2019-02-02T07:11:03.291Z,0.2
2019-02-02T07:12:03.720Z,0.2
2019-02-02T07:13:03.432Z,0.2
2019-02-02T07:14:03.272Z,0.2
2019-02-02T07:15:03.596Z,0.2
2019-02-02T07:16:02.894Z,0.2
2019-02-02T07:17:03.562Z,0.2
2019-02-02T07:18:03.444Z,0.3
2019-02-02T07:19:03.511Z,0.2
2019-02-02T07:20:03.235Z,0.3
2019-02-02T07:21:02.716Z,0.3
2019-02-02T07:22:02.896Z,0.2
2019-02-02T07:23:03.010Z,0.3
2019-02-02T07:24:03.556Z,0.3
2019-02-02T07:25:03.308Z,0.3
2019-02-02T07:26:03.599Z,0.3
2019-02-02T07:27:03.016Z,0.2
2019-02-02T07:28:02.823Z,0.3
2019-02-02T07:29:02.761Z,0.3
2019-02-02T07:30:05.407Z,0.3
2019-02-02T07:31:03.115Z,0.3
2019-02-02T07:32:03.574Z,0.3
2019-02-02T07:33:02.723Z,0.3
2019-02-02T07:34:03.012Z,0.3
2019-02-02T07:35:03.472Z,0.3
2019-02-02T07:36:03.526Z,0.3
2019-02-02T07:37:02.910Z,0.3
2019-02-02T07:38:03.026Z,0.3
2019-02-02T07:39:03.512Z,0.3
2019-02-02T07:40:02.795Z,0.3
2019-02-02T07:41:03.547Z,0.3
2019-02-02T07:42:03.143Z,0.3
2019-02-02T07:43:03.512Z,0.3
2019-02-02T07:44:02.965Z,0.3
2019-02-02T07:45:03.621Z,0.3
2019-02-02T07:46:15.414Z,0.3
2019-02-02T07:47:03.550Z,0.3
2019-02-02T07:48:03.397Z,0.4
2019-02-02T07:49:03.234Z,0.4
2019-02-02T07:50:03.113Z,0.4
2019-02-02T07:51:03.330Z,0.4
2019-02-02T07:52:03.179Z,0.4
2019-02-02T07:53:03.190Z,0.4
2019-02-02T07:54:03.434Z,0.4
2019-02-02T07:55:03.235Z,0.4
2019-02-02T07:56:03.076Z,0.4
2019-02-02T07:57:03.669Z,0.4
2019-02-02T07:58:03.193Z,0.4
2019-02-02T07:59:03.663Z,0.4
2019-02-02T08:00:03.318Z,0.4
2019-02-02T08:01:02.840Z,0.4
2019-02-02T08:02:02.931Z,0.4
2019-02-02T08:03:03.406Z,0.4
2019-02-02T08:04:02.931Z,0.4
2019-02-02T08:05:03.092Z,0.4
2019-02-02T08:06:03.294Z,0.4
2019-02-02T08:07:02.933Z,0.4
2019-02-02T08:08:02.920Z,0.4
2019-02-02T08:09:03.223Z,0.5
2019-02-02T08:10:02.929Z,0.5
2019-02-02T08:11:03.670Z,0.5
2019-02-02T08:12:03.603Z,0.5
2019-02-02T08:13:02.647Z,0.5
2019-02-02T08:14:03.247Z,0.5
2019-02-02T08:15:03.000Z,0.5
2019-02-02T08:16:03.184Z,0.5
2019-02-02T08:17:03.483Z,0.5
2019-02-02T08:18:02.968Z,0.6
2019-02-02T08:19:02.860Z,0.6
2019-02-02T08:20:03.811Z,0.6
2019-02-02T08:21:03.015Z,0.6
2019-02-02T08:22:03.610Z,0.6
2019-02-02T08:23:03.485Z,0.6
2019-02-02T08:24:03.440Z,0.6
2019-02-02T08:25:03.767Z,0.7
2019-02-02T08:26:03.454Z,0.7
2019-02-02T08:27:02.867Z,0.8
2019-02-02T08:28:03.260Z,0.8
2019-02-02T08:29:02.846Z,0.8
2019-02-02T08:30:03.695Z,0.8
2019-02-02T08:31:02.691Z,0.8
2019-02-02T08:32:03.557Z,0.8
2019-02-02T08:33:03.472Z,0.9
2019-02-02T08:34:03.636Z,0.9
2019-02-02T08:35:03.055Z,0.9
2019-02-02T08:36:04.384Z,0.9
2019-02-02T08:37:03.310Z,0.9
2019-02-02T08:38:03.698Z,0.9
2019-02-02T08:39:03.128Z,0.9
2019-02-02T08:40:03.634Z,0.9
2019-02-02T08:41:03.248Z,0.9
2019-02-02T08:42:03.393Z,0.9
2019-02-02T08:43:03.145Z,0.9
2019-02-02T08:44:03.312Z,0.9
2019-02-02T08:45:03.734Z,0.9
2019-02-02T08:46:03.181Z,0.9
2019-02-02T08:47:02.816Z,0.9
2019-02-02T08:48:03.188Z,0.9
2019-02-02T08:49:02.881Z,0.9
2019-02-02T08:50:03.084Z,0.9
2019-02-02T08:51:03.228Z,0.9
2019-02-02T08:52:03.205Z,0.9
2019-02-02T08:53:03.032Z,0.9
2019-02-02T08:54:03.979Z,0.9
2019-02-02T08:55:03.219Z,0.9
2019-02-02T08:56:03.791Z,0.9
2019-02-02T08:57:03.834Z,0.9
2019-02-02T08:58:01.786Z,0.9
2019-02-02T08:59:03.181Z,0.9
2019-02-02T09:00:02.743Z,0.9
2019-02-02T09:01:04.674Z,0.9
2019-02-02T09:02:03.394Z,0.9
2019-02-02T09:03:03.351Z,0.9
2019-02-02T09:04:03.790Z,0.9
2019-02-02T09:05:03.869Z,0.9
2019-02-02T09:06:03.284Z,0.9
2019-02-02T09:07:03.318Z,0.9
2019-02-02T09:08:03.499Z,0.9
2019-02-02T09:09:03.689Z,0.9
2019-02-02T09:10:03.424Z,0.9
2019-02-02T09:11:03.132Z,0.9
2019-02-02T09:12:03.006Z,0.9
2019-02-02T09:13:03.310Z,0.9
2019-02-02T09:14:03.059Z,0.9
2019-02-02T09:15:03.197Z,0.9
2019-02-02T09:16:03.691Z,0.9
2019-02-02T09:17:02.854Z,0.9
2019-02-02T09:18:03.317Z,0.9
2019-02-02T09:19:03.572Z,0.9
2019-02-02T09:20:03.073Z,0.9
2019-02-02T09:21:03.389Z,0.9
2019-02-02T09:22:03.136Z,0.9
2019-02-02T09:23:06.945Z,0.9
2019-02-02T09:24:02.905Z,0.9
2019-02-02T09:25:03.437Z,0.9
2019-02-02T09:26:02.993Z,0.9
2019-02-02T09:27:02.713Z,1
2019-02-02T09:28:03.341Z,1
2019-02-02T09:29:03.521Z,1
2019-02-02T09:30:02.764Z,1
2019-02-02T09:31:03.091Z,1
2019-02-02T09:32:03.390Z,1
2019-02-02T09:33:03.308Z,1.1
2019-02-02T09:34:02.874Z,1
2019-02-02T09:35:03.105Z,1.1
2019-02-02T09:36:03.399Z,1
2019-02-02T09:37:02.784Z,1
2019-02-02T09:38:03.445Z,1
2019-02-02T09:39:03.177Z,1
2019-02-02T09:40:03.620Z,1
2019-02-02T09:41:02.899Z,1
2019-02-02T09:42:03.139Z,1
2019-02-02T09:43:02.867Z,1
2019-02-02T09:44:03.583Z,1
2019-02-02T09:45:03.225Z,1.1
2019-02-02T09:46:04.941Z,1.1
2019-02-02T09:47:03.295Z,1.1
2019-02-02T09:48:02.762Z,1.1
2019-02-02T09:49:02.972Z,1.1
2019-02-02T09:50:03.125Z,1.1
2019-02-02T09:51:02.765Z,1.1
2019-02-02T09:52:03.506Z,1.1
2019-02-02T09:53:02.762Z,1.1
2019-02-02T09:54:02.780Z,1.1
2019-02-02T09:55:03.755Z,1.1
2019-02-02T09:56:03.557Z,1.1
2019-02-02T09:57:03.772Z,1.1
2019-02-02T09:58:03.396Z,1.1
2019-02-02T09:59:03.401Z,1.1
2019-02-02T10:00:03.630Z,1.2
2019-02-02T10:01:02.853Z,1.3
2019-02-02T10:02:03.522Z,1.3
2019-02-02T10:03:02.872Z,1.3
2019-02-02T10:04:03.120Z,1.4
2019-02-02T10:05:03.259Z,1.4
2019-02-02T10:06:03.586Z,1.4
2019-02-02T10:07:02.924Z,1.4
2019-02-02T10:08:02.786Z,1.4
2019-02-02T10:09:03.217Z,1.5
2019-02-02T10:10:03.662Z,1.6
2019-02-02T10:11:02.771Z,1.7
2019-02-02T10:12:03.410Z,1.7
2019-02-02T10:13:03.025Z,1.8
2019-02-02T10:14:02.729Z,1.8
2019-02-02T10:15:03.640Z,1.9
2019-02-02T10:16:02.908Z,1.9
2019-02-02T10:17:02.622Z,2
2019-02-02T10:18:03.157Z,2
2019-02-02T10:19:03.232Z,2
2019-02-02T10:20:03.637Z,2
2019-02-02T10:21:04.564Z,1.9
2019-02-02T10:22:03.096Z,1.9
2019-02-02T10:23:03.746Z,1.9
2019-02-02T10:24:03.388Z,1.9
2019-02-02T10:25:03.152Z,1.9
2019-02-02T10:26:03.610Z,1.9
2019-02-02T10:27:03.153Z,2
2019-02-02T10:28:03.237Z,2.1
2019-02-02T10:29:02.865Z,2.1
2019-02-02T10:30:02.802Z,2.1
2019-02-02T10:31:03.618Z,2
2019-02-02T10:32:03.290Z,2
2019-02-02T10:33:03.731Z,1.9
2019-02-02T10:34:03.381Z,1.9
2019-02-02T10:35:03.317Z,1.9
2019-02-02T10:36:03.057Z,1.9
2019-02-02T10:37:02.751Z,1.9
2019-02-02T10:38:03.693Z,1.9
2019-02-02T10:39:03.026Z,1.9
2019-02-02T10:40:03.429Z,2
2019-02-02T10:41:02.875Z,1.9
2019-02-02T10:42:03.081Z,1.9
2019-02-02T10:43:03.547Z,2
2019-02-02T10:44:03.520Z,2
2019-02-02T10:45:03.012Z,2.1
2019-02-02T10:46:02.744Z,2.1
2019-02-02T10:47:03.467Z,2.1
2019-02-02T10:48:03.298Z,2
2019-02-02T10:49:03.265Z,2
2019-02-02T10:50:03.422Z,2
2019-02-02T10:51:03.519Z,2.1
2019-02-02T10:52:02.176Z,2
2019-02-02T10:53:03.367Z,2.1
2019-02-02T10:54:05.866Z,2.1
2019-02-02T10:55:03.193Z,2.1
2019-02-02T10:56:03.508Z,2
2019-02-02T10:57:03.019Z,1.9
2019-02-02T10:58:02.889Z,1.9
2019-02-02T10:59:03.277Z,1.9
2019-02-02T11:00:02.882Z,1.9
2019-02-02T11:01:02.753Z,1.9
2019-02-02T11:02:03.246Z,1.9
2019-02-02T11:03:02.848Z,1.8
2019-02-02T11:04:03.774Z,1.8
2019-02-02T11:05:04.175Z,1.9
2019-02-02T11:06:03.147Z,1.9
2019-02-02T11:07:03.306Z,1.9
2019-02-02T11:08:04.013Z,1.9
2019-02-02T11:09:03.234Z,1.9
2019-02-02T11:10:03.666Z,1.9
2019-02-02T11:11:03.060Z,1.9
2019-02-02T11:12:03.723Z,1.9
2019-02-02T11:13:03.134Z,1.9
2019-02-02T11:14:03.157Z,1.9
2019-02-02T11:15:03.030Z,1.9
2019-02-02T11:16:03.763Z,1.9
2019-02-02T11:17:03.840Z,1.9
2019-02-02T11:18:03.057Z,1.9
2019-02-02T11:19:02.971Z,1.9
2019-02-02T11:20:03.644Z,1.9
2019-02-02T11:21:03.499Z,1.9
2019-02-02T11:22:03.609Z,1.9
2019-02-02T11:23:03.768Z,1.9
2019-02-02T11:24:03.432Z,2
2019-02-02T11:25:03.853Z,2
2019-02-02T11:26:03.516Z,2
2019-02-02T11:27:03.016Z,2
2019-02-02T11:28:03.722Z,2
2019-02-02T11:29:03.457Z,2
2019-02-02T11:30:02.899Z,2
2019-02-02T11:31:03.575Z,2
2019-02-02T11:32:03.547Z,2.1
2019-02-02T11:33:02.951Z,2
2019-02-02T11:34:03.066Z,2.1
2019-02-02T11:35:03.586Z,2.1
2019-02-02T11:36:02.921Z,2.1
2019-02-02T11:37:03.644Z,2.1
2019-02-02T11:38:03.538Z,2.1
2019-02-02T11:39:03.067Z,2.1
2019-02-02T11:40:03.575Z,2.1
2019-02-02T11:41:03.046Z,2.1
2019-02-02T11:42:03.256Z,2.1
2019-02-02T11:43:03.499Z,2.1
2019-02-02T11:44:02.780Z,2.1
2019-02-02T11:45:03.240Z,2.1
2019-02-02T11:46:03.355Z,2.1
2019-02-02T11:47:02.875Z,2.1
2019-02-02T11:48:03.439Z,2.1
2019-02-02T11:49:03.510Z,2.1
2019-02-02T11:50:03.594Z,2.2
2019-02-02T11:51:03.263Z,2.2
2019-02-02T11:52:03.043Z,2.2
2019-02-02T11:53:03.531Z,2.2
2019-02-02T11:54:02.885Z,2.2
2019-02-02T11:55:02.958Z,2.2
2019-02-02T11:56:02.985Z,2.2
2019-02-02T11:57:03.372Z,2.2
2019-02-02T11:58:03.686Z,2.2
2019-02-02T11:59:03.235Z,2.2
2019-02-02T12:00:03.650Z,2.3
2019-02-02T12:01:02.912Z,2.3
2019-02-02T12:02:15.071Z,2.3
2019-02-02T12:03:04.715Z,2.3
2019-02-02T12:04:03.174Z,2.3
2019-02-02T12:05:03.384Z,2.3
2019-02-02T12:06:03.268Z,2.4
2019-02-02T12:07:02.837Z,2.3
2019-02-02T12:08:03.199Z,2.3
2019-02-02T12:09:03.635Z,2.4
2019-02-02T12:10:03.041Z,2.4
2019-02-02T12:11:02.719Z,2.4
2019-02-02T12:12:02.708Z,2.4
2019-02-02T12:13:03.542Z,2.4
2019-02-02T12:14:02.991Z,2.5
2019-02-02T12:15:03.181Z,2.5
2019-02-02T12:16:02.856Z,2.5
2019-02-02T12:17:03.167Z,2.5
2019-02-02T12:18:03.666Z,2.5
2019-02-02T12:19:03.334Z,2.6
2019-02-02T12:20:03.620Z,2.6
2019-02-02T12:21:02.831Z,2.6
2019-02-02T12:22:03.560Z,2.7
2019-02-02T12:23:03.766Z,2.8
2019-02-02T12:24:16.445Z,2.8
2019-02-02T12:25:02.951Z,2.8
2019-02-02T12:26:03.570Z,2.8
2019-02-02T12:27:03.176Z,2.8
2019-02-02T12:28:03.655Z,2.9
2019-02-02T12:29:02.904Z,2.8
2019-02-02T12:30:03.521Z,2.9
2019-02-02T12:31:03.098Z,2.9
2019-02-02T12:32:02.963Z,2.8
2019-02-02T12:33:03.975Z,2.9
2019-02-02T12:34:03.014Z,2.9
2019-02-02T12:35:05.012Z,2.9
2019-02-02T12:36:03.156Z,2.9
2019-02-02T12:37:03.009Z,2.9
2019-02-02T12:38:03.160Z,2.9
2019-02-02T12:39:03.294Z,2.9
2019-02-02T12:40:03.258Z,2.9
2019-02-02T12:41:02.692Z,3
2019-02-02T12:42:03.179Z,2.9
2019-02-02T12:43:03.027Z,3
2019-02-02T12:44:03.052Z,2.9
2019-02-02T12:45:02.921Z,2.9
2019-02-02T12:46:02.736Z,2.9
2019-02-02T12:47:03.388Z,2.9
2019-02-02T12:48:03.428Z,2.9
2019-02-02T12:49:03.085Z,2.9
2019-02-02T12:50:03.653Z,2.9
2019-02-02T12:51:03.422Z,2.9
2019-02-02T12:52:03.038Z,2.9
2019-02-02T12:53:03.067Z,2.9
2019-02-02T12:54:03.032Z,2.9
2019-02-02T12:55:03.688Z,2.9
2019-02-02T12:56:03.228Z,3
2019-02-02T12:57:02.734Z,3.1
2019-02-02T12:58:03.362Z,3.2
2019-02-02T12:59:03.139Z,3.2
2019-02-02T13:00:03.282Z,3.3
2019-02-02T13:01:02.834Z,3.3
2019-02-02T13:02:03.141Z,3.3
2019-02-02T13:03:03.022Z,3.3
2019-02-02T13:04:05.969Z,3.4
2019-02-02T13:05:03.502Z,3.4
2019-02-02T13:06:03.491Z,3.4
2019-02-02T13:07:02.926Z,3.6
2019-02-02T13:08:05.911Z,3.5
2019-02-02T13:09:03.219Z,3.5
2019-02-02T13:10:03.077Z,3.5
2019-02-02T13:11:03.016Z,3.6
2019-02-02T13:12:03.868Z,3.6
2019-02-02T13:13:03.012Z,3.6
2019-02-02T13:14:03.268Z,3.6
2019-02-02T13:15:03.578Z,3.7
2019-02-02T13:16:02.684Z,3.7
2019-02-02T13:17:03.187Z,3.8
2019-02-02T13:18:03.364Z,3.8
2019-02-02T13:19:02.947Z,3.7
2019-02-02T13:20:03.305Z,3.6
2019-02-02T13:21:03.139Z,3.6
2019-02-02T13:22:03.509Z,3.6
2019-02-02T13:23:03.506Z,3.6
2019-02-02T13:24:03.223Z,3.6
2019-02-02T13:25:02.759Z,3.7
2019-02-02T13:26:06.040Z,3.6
2019-02-02T13:27:03.399Z,3.6
2019-02-02T13:28:02.614Z,3.7
2019-02-02T13:29:03.627Z,3.8
2019-02-02T13:30:03.334Z,3.8
2019-02-02T13:31:03.649Z,3.8
2019-02-02T13:32:02.816Z,3.8
2019-02-02T13:33:03.442Z,3.8
2019-02-02T13:34:03.712Z,3.8
2019-02-02T13:35:02.678Z,3.7
2019-02-02T13:36:03.112Z,3.7
2019-02-02T13:37:03.305Z,3.6
2019-02-02T13:38:02.930Z,3.6
2019-02-02T13:39:03.074Z,3.6
2019-02-02T13:40:03.899Z,3.6
2019-02-02T13:41:03.663Z,3.6
2019-02-02T13:42:03.074Z,3.6
2019-02-02T13:43:02.806Z,3.6
2019-02-02T13:44:02.893Z,3.6
2019-02-02T13:45:03.434Z,3.6
2019-02-02T13:46:02.973Z,3.6
2019-02-02T13:47:03.407Z,3.6
2019-02-02T13:48:03.105Z,3.6